Time;durP1;ratioP1;P1;durP2;ratioP2;P2;SDS_P1;SDS_P2;PMS_P1;PMS_P2;Temp;Humidity;BMP_temperature;BMP_pressure;BME280_temperature;BME280_humidity;BME280_pressure;Samples;Min_cycle;Max_cycle;Signal;HPM_P1;HPM_P2
2023/10/07 00:01:22;;;;;;;16.35;9.98;;;;;;;;;;5089393;28;20095;-70
2023/10/07 00:03:51;;;;;;;16.48;10.75;;;;;;;;;;5083949;28;20134;-69
2023/10/07 00:06:17;;;;;;;19.13;10.57;;;;;;;;;;5084822;28;20020;-69
2023/10/07 00:08:44;;;;;;;16.15;9.93;;;;;;;;;;5087467;28;20047;-69
2023/10/07 00:11:16;;;;;;;15.55;10.50;;;;;;;;;;5088909;28;20459;-69
2023/10/07 00:13:42;;;;;;;22.55;10.48;;;;;;;;;;5089313;28;20028;-69
2023/10/07 00:16:17;;;;;;;13.75;9.20;;;;;;;;;;5089703;28;20035;-69
2023/10/07 00:18:43;;;;;;;16.25;10.45;;;;;;;;;;5090481;28;20479;-69
2023/10/07 00:21:15;;;;;;;16.85;10.63;;;;;;;;;;5089086;28;20087;-69
2023/10/07 00:23:42;;;;;;;14.07;9.55;;;;;;;;;;5093693;28;20448;-69
2023/10/07 00:26:09;;;;;;;16.42;10.32;;;;;;;;;;5093343;28;20059;-70
2023/10/07 00:28:44;;;;;;;21.17;9.43;;;;;;;;;;5089188;28;20466;-70
2023/10/07 00:31:14;;;;;;;18.90;11.38;;;;;;;;;;5073924;28;20029;-70
2023/10/07 00:36:25;;;;;;;13.95;9.57;;;;;;;;;;5089729;28;20428;-70
2023/10/07 00:38:54;;;;;;;15.38;10.32;;;;;;;;;;5092192;28;20093;-70
2023/10/07 00:41:23;;;;;;;22.25;11.80;;;;;;;;;;5093374;28;20126;-70
2023/10/07 00:43:53;;;;;;;21.20;11.07;;;;;;;;;;5092137;28;20388;-70
2023/10/07 00:46:28;;;;;;;18.35;10.05;;;;;;;;;;5093026;28;20035;-70
2023/10/07 00:48:57;;;;;;;13.93;8.35;;;;;;;;;;5091950;28;20031;-70
2023/10/07 00:51:33;;;;;;;17.35;9.75;;;;;;;;;;5093268;28;20047;-70
2023/10/07 00:57:05;;;;;;;28.60;11.30;;;;;;;;;;5091396;28;20032;-69
2023/10/07 00:59:32;;;;;;;14.15;9.07;;;;;;;;;;5072875;28;20390;-70
2023/10/07 01:01:58;;;;;;;16.23;9.00;;;;;;;;;;5072465;28;20099;-69
2023/10/07 01:04:27;;;;;;;16.10;9.18;;;;;;;;;;5071478;28;20119;-69
2023/10/07 01:07:03;;;;;;;17.42;9.85;;;;;;;;;;5082797;28;20043;-69
2023/10/07 01:09:29;;;;;;;22.67;9.95;;;;;;;;;;5091956;28;20135;-69
2023/10/07 01:11:58;;;;;;;14.32;9.30;;;;;;;;;;5091608;28;20103;-71
2023/10/07 01:14:26;;;;;;;14.98;9.73;;;;;;;;;;5099647;28;20028;-69
2023/10/07 01:16:53;;;;;;;14.07;8.77;;;;;;;;;;5085086;28;20024;-70
2023/10/07 01:19:28;;;;;;;11.80;8.35;;;;;;;;;;5091433;28;20486;-70
2023/10/07 01:21:58;;;;;;;14.70;9.40;;;;;;;;;;5091233;28;20065;-70
2023/10/07 01:27:19;;;;;;;12.60;9.07;;;;;;;;;;5091195;28;20409;-70
2023/10/07 01:29:50;;;;;;;14.38;9.80;;;;;;;;;;5091399;28;20108;-70
2023/10/07 01:32:17;;;;;;;14.02;9.25;;;;;;;;;;5092904;28;20032;-70
2023/10/07 01:34:52;;;;;;;14.52;8.98;;;;;;;;;;5089473;28;20533;-70
2023/10/07 01:37:21;;;;;;;12.90;9.43;;;;;;;;;;5090769;28;20043;-69
2023/10/07 01:39:49;;;;;;;13.82;8.52;;;;;;;;;;5087900;28;20035;-70
2023/10/07 01:42:23;;;;;;;17.23;9.30;;;;;;;;;;5089203;28;20047;-68
2023/10/07 01:44:55;;;;;;;13.63;9.13;;;;;;;;;;5090571;28;20557;-69
2023/10/07 01:47:25;;;;;;;16.05;10.18;;;;;;;;;;5091086;28;20020;-69
2023/10/07 01:49:55;;;;;;;13.98;9.02;;;;;;;;;;5091080;28;20501;-69
2023/10/07 01:52:26;;;;;;;12.80;8.50;;;;;;;;;;5092137;28;20471;-69
2023/10/07 01:54:58;;;;;;;13.40;8.63;;;;;;;;;;5091963;28;20036;-70
2023/10/07 01:57:24;;;;;;;13.35;8.45;;;;;;;;;;5099794;28;20044;-70
2023/10/07 01:59:52;;;;;;;16.85;8.80;;;;;;;;;;5091397;28;20024;-70
2023/10/07 02:02:25;;;;;;;13.43;8.82;;;;;;;;;;5092783;28;20032;-70
2023/10/07 02:04:55;;;;;;;12.98;8.38;;;;;;;;;;5092140;28;20492;-70
2023/10/07 02:07:21;;;;;;;15.85;8.70;;;;;;;;;;5090791;28;20023;-70
2023/10/07 02:09:48;;;;;;;15.13;8.70;;;;;;;;;;5092601;28;20064;-70
2023/10/07 02:12:18;;;;;;;12.52;9.05;;;;;;;;;;5091118;28;20500;-70
2023/10/07 02:14:44;;;;;;;17.10;9.30;;;;;;;;;;5090667;28;20087;-70
2023/10/07 02:17:12;;;;;;;15.05;8.68;;;;;;;;;;5091014;28;20056;-68
2023/10/07 02:19:41;;;;;;;25.92;9.30;;;;;;;;;;5090801;28;20035;-69
2023/10/07 02:22:07;;;;;;;17.85;9.60;;;;;;;;;;5073858;28;20490;-69
2023/10/07 02:24:41;;;;;;;21.35;10.80;;;;;;;;;;5090696;28;20093;-69
2023/10/07 02:27:19;;;;;;;14.63;9.65;;;;;;;;;;5090442;28;20055;-70
2023/10/07 02:29:56;;;;;;;14.60;9.35;;;;;;;;;;5092148;28;20034;-69
2023/10/07 02:32:23;;;;;;;14.13;9.80;;;;;;;;;;5090822;28;20059;-69
2023/10/07 02:34:51;;;;;;;16.50;8.98;;;;;;;;;;5090154;28;20059;-70
2023/10/07 02:37:21;;;;;;;18.17;9.63;;;;;;;;;;5094781;28;20043;-69
2023/10/07 02:39:49;;;;;;;15.25;9.35;;;;;;;;;;5090352;28;20028;-69
2023/10/07 02:42:23;;;;;;;13.60;9.40;;;;;;;;;;5090475;28;20168;-69
2023/10/07 02:45:05;;;;;;;16.15;10.20;;;;;;;;;;5089609;28;20115;-69
2023/10/07 02:47:32;;;;;;;14.02;9.98;;;;;;;;;;5074806;28;20089;-69
2023/10/07 02:50:01;;;;;;;15.80;9.45;;;;;;;;;;5090578;28;20101;-69
2023/10/07 02:52:36;;;;;;;16.27;9.35;;;;;;;;;;5091325;28;20040;-68
2023/10/07 02:57:46;;;;;;;15.00;9.32;;;;;;;;;;5091093;28;20401;-69
2023/10/07 03:00:29;;;;;;;15.82;9.95;;;;;;;;;;5090268;28;20035;-70
2023/10/07 03:05:43;;;;;;;17.90;9.63;;;;;;;;;;5074723;28;20051;-70
2023/10/07 03:08:19;;;;;;;15.68;10.57;;;;;;;;;;5090944;28;20032;-69
2023/10/07 03:13:39;;;;;;;18.05;9.85;;;;;;;;;;5090136;28;20085;-70
2023/10/07 03:21:55;;;;;;;12.45;8.98;;;;;;;;;;5091358;28;20019;-68
2023/10/07 03:24:40;;;;;;;14.75;8.93;;;;;;;;;;5091300;28;20102;-69
2023/10/07 03:27:10;;;;;;;13.30;8.75;;;;;;;;;;5091429;28;20024;-70
2023/10/07 03:29:45;;;;;;;16.13;9.32;;;;;;;;;;5091387;28;20032;-69
2023/10/07 03:32:15;;;;;;;13.30;9.13;;;;;;;;;;5091546;28;20058;-69
2023/10/07 03:34:45;;;;;;;13.38;8.40;;;;;;;;;;5091381;28;20027;-70
2023/10/07 03:42:23;;;;;;;13.50;7.93;;;;;;;;;;5091317;28;20040;-70
2023/10/07 03:44:49;;;;;;;13.60;7.72;;;;;;;;;;5091429;28;20024;-69
2023/10/07 03:47:16;;;;;;;15.90;8.68;;;;;;;;;;5091272;28;20097;-69
2023/10/07 03:49:48;;;;;;;13.73;8.15;;;;;;;;;;5091179;28;20103;-70
2023/10/07 03:52:19;;;;;;;14.07;8.05;;;;;;;;;;5090706;28;20039;-69
2023/10/07 03:54:47;;;;;;;16.02;8.02;;;;;;;;;;5090571;28;20032;-71
2023/10/07 03:57:15;;;;;;;16.58;7.97;;;;;;;;;;5092335;28;20078;-69
2023/10/07 03:59:41;;;;;;;19.48;8.48;;;;;;;;;;5095777;28;20056;-70
2023/10/07 04:05:12;;;;;;;13.55;7.40;;;;;;;;;;5051737;28;20118;-70
2023/10/07 04:07:39;;;;;;;16.77;7.55;;;;;;;;;;5073817;28;20044;-69
2023/10/07 04:10:36;;;;;;;21.02;8.43;;;;;;;;;;5094959;28;20048;-70
2023/10/07 04:13:07;;;;;;;18.27;8.82;;;;;;;;;;5094854;28;20035;-69
2023/10/07 04:15:44;;;;;;;12.32;7.57;;;;;;;;;;5094502;28;20039;-70
2023/10/07 04:18:13;;;;;;;13.88;7.57;;;;;;;;;;5094714;28;20066;-69
2023/10/07 04:20:56;;;;;;;12.63;7.97;;;;;;;;;;5094451;28;20026;-70
2023/10/07 04:23:25;;;;;;;11.45;7.72;;;;;;;;;;5094612;28;20194;-70
2023/10/07 04:25:55;;;;;;;12.65;7.38;;;;;;;;;;5094350;28;20154;-69
2023/10/07 04:28:27;;;;;;;14.88;8.05;;;;;;;;;;5094615;28;20317;-70
2023/10/07 04:30:53;;;;;;;13.45;6.65;;;;;;;;;;5094463;28;20040;-69
2023/10/07 04:33:25;;;;;;;16.90;7.72;;;;;;;;;;5094142;28;20024;-69
2023/10/07 04:35:57;;;;;;;14.13;8.30;;;;;;;;;;5093723;28;20031;-70
2023/10/07 04:43:37;;;;;;;13.38;8.10;;;;;;;;;;5094246;28;20044;-71
2023/10/07 04:46:12;;;;;;;27.50;9.05;;;;;;;;;;5092583;28;20072;-70
2023/10/07 04:48:54;;;;;;;14.65;8.00;;;;;;;;;;5094109;28;20023;-69
2023/10/07 04:54:02;;;;;;;14.52;8.60;;;;;;;;;;5093849;28;20077;-69
2023/10/07 04:56:32;;;;;;;14.45;8.60;;;;;;;;;;5093143;28;20103;-69
2023/10/07 04:59:05;;;;;;;15.23;8.50;;;;;;;;;;5093637;28;20089;-69
2023/10/07 05:01:34;;;;;;;11.60;7.70;;;;;;;;;;5093997;28;20048;-69
2023/10/07 05:04:04;;;;;;;14.15;7.57;;;;;;;;;;5090054;28;20032;-69
2023/10/07 05:06:34;;;;;;;16.23;7.53;;;;;;;;;;5091982;28;20401;-70
2023/10/07 05:09:10;;;;;;;15.77;8.25;;;;;;;;;;5093602;28;20020;-71
2023/10/07 05:11:40;;;;;;;15.75;8.13;;;;;;;;;;5092845;28;20081;-70
2023/10/07 05:14:21;;;;;;;17.80;8.63;;;;;;;;;;5094089;28;20082;-70
2023/10/07 05:16:47;;;;;;;14.73;8.33;;;;;;;;;;5086213;28;20030;-71
2023/10/07 05:19:21;;;;;;;15.95;7.78;;;;;;;;;;5093936;28;20623;-69
2023/10/07 05:22:05;;;;;;;15.23;7.95;;;;;;;;;;5086003;28;20028;-70
2023/10/07 05:24:32;;;;;;;;;;;;;;;;;;5094070;28;20040;-70
2023/10/07 05:27:02;;;;;;;15.23;7.85;;;;;;;;;;5093137;28;19919;-70
2023/10/07 05:29:29;;;;;;;15.80;7.60;;;;;;;;;;5093644;28;20039;-71
2023/10/07 05:31:56;;;;;;;11.82;7.72;;;;;;;;;;5093563;28;20254;-69
2023/10/07 05:34:30;;;;;;;16.88;7.50;;;;;;;;;;5093642;28;20043;-69
2023/10/07 05:37:05;;;;;;;17.20;7.85;;;;;;;;;;5092497;28;20056;-70
2023/10/07 05:39:34;;;;;;;12.75;7.25;;;;;;;;;;5093515;28;20051;-71
2023/10/07 05:42:00;;;;;;;17.58;7.30;;;;;;;;;;5093561;28;20050;-70
2023/10/07 05:44:28;;;;;;;23.75;8.73;;;;;;;;;;5093231;28;20078;-70
2023/10/07 05:46:54;;;;;;;16.30;8.18;;;;;;;;;;5093361;28;20047;-70
2023/10/07 05:49:19;;;;;;;14.00;7.53;;;;;;;;;;5093307;28;20031;-69
2023/10/07 05:51:47;;;;;;;13.85;7.82;;;;;;;;;;5093272;28;20019;-69
2023/10/07 05:54:18;;;;;;;14.02;7.93;;;;;;;;;;5093019;28;20122;-70
2023/10/07 05:56:47;;;;;;;14.18;6.90;;;;;;;;;;5092698;28;20051;-70
2023/10/07 05:59:14;;;;;;;14.23;6.93;;;;;;;;;;5093099;28;20024;-69
2023/10/07 06:01:41;;;;;;;12.57;6.93;;;;;;;;;;5087849;28;20032;-69
2023/10/07 06:04:07;;;;;;;12.50;7.45;;;;;;;;;;5092406;28;20020;-69
2023/10/07 06:06:33;;;;;;;14.02;7.25;;;;;;;;;;5092638;28;20032;-69
2023/10/07 06:09:03;;;;;;;15.40;7.53;;;;;;;;;;5092684;28;20038;-69
2023/10/07 06:11:34;;;;;;;10.98;7.35;;;;;;;;;;5092450;28;20032;-70
2023/10/07 06:14:01;;;;;;;23.20;7.93;;;;;;;;;;5092171;28;20040;-69
2023/10/07 06:16:27;;;;;;;18.95;8.30;;;;;;;;;;5092405;28;20145;-69
2023/10/07 06:18:53;;;;;;;16.67;8.55;;;;;;;;;;5092725;28;20024;-70
2023/10/07 06:21:28;;;;;;;21.63;8.10;;;;;;;;;;5092039;28;20074;-69
2023/10/07 06:23:58;;;;;;;14.07;7.85;;;;;;;;;;5089303;28;20059;-73
2023/10/07 06:26:25;;;;;;;13.55;7.47;;;;;;;;;;5092909;28;20473;-72
2023/10/07 06:28:51;;;;;;;12.88;6.93;;;;;;;;;;5091833;28;20065;-72
2023/10/07 06:31:22;;;;;;;13.13;6.65;;;;;;;;;;5091743;28;20128;-71
2023/10/07 06:34:12;;;;;;;14.18;7.10;;;;;;;;;;5092067;28;20375;-72
2023/10/07 06:36:40;;;;;;;12.25;6.97;;;;;;;;;;5090133;28;20502;-72
2023/10/07 06:39:07;;;;;;;14.23;6.50;;;;;;;;;;5092136;28;20020;-72
2023/10/07 06:41:34;;;;;;;11.45;6.53;;;;;;;;;;5091613;28;20040;-71
2023/10/07 06:44:02;;;;;;;16.40;7.30;;;;;;;;;;5088786;28;20034;-72
2023/10/07 06:46:40;;;;;;;15.57;6.45;;;;;;;;;;5091895;28;20043;-72
2023/10/07 06:49:18;;;;;;;13.35;7.30;;;;;;;;;;5090717;28;20111;-72
2023/10/07 06:51:54;;;;;;;11.77;6.60;;;;;;;;;;5092242;28;20044;-72
2023/10/07 06:54:23;;;;;;;15.45;7.20;;;;;;;;;;5092179;28;20028;-72
2023/10/07 06:56:51;;;;;;;12.55;6.07;;;;;;;;;;5091310;28;20020;-72
2023/10/07 06:59:17;;;;;;;12.63;6.20;;;;;;;;;;5089589;28;20035;-73
2023/10/07 07:04:10;;;;;;;14.40;6.93;;;;;;;;;;5090797;28;20028;-75
2023/10/07 07:06:44;;;;;;;11.80;6.53;;;;;;;;;;5090646;28;20031;-73
2023/10/07 07:12:03;;;;;;;15.65;6.95;;;;;;;;;;5091079;28;20039;-72
2023/10/07 07:14:31;;;;;;;13.98;6.75;;;;;;;;;;5091679;28;20085;-72
2023/10/07 07:22:50;;;;;;;19.10;6.70;;;;;;;;;;5054243;28;20044;-74
2023/10/07 07:25:39;;;;;;;14.50;6.43;;;;;;;;;;5089347;28;20028;-73
2023/10/07 07:28:06;;;;;;;11.02;6.53;;;;;;;;;;5083761;28;20040;-74
2023/10/07 07:30:32;;;;;;;12.77;6.53;;;;;;;;;;5088769;28;20024;-73
2023/10/07 07:33:00;;;;;;;15.18;6.53;;;;;;;;;;5090230;28;20024;-72
2023/10/07 07:35:39;;;;;;;12.57;6.75;;;;;;;;;;5090809;28;20047;-73
2023/10/07 07:40:49;;;;;;;19.17;6.27;;;;;;;;;;5091507;28;20342;-72
2023/10/07 07:43:19;;;;;;;12.98;7.15;;;;;;;;;;5089441;28;20042;-75
2023/10/07 07:45:46;;;;;;;12.65;7.72;;;;;;;;;;5090368;28;20032;-72
2023/10/07 07:48:12;;;;;;;11.70;6.65;;;;;;;;;;5090807;28;20020;-76
2023/10/07 07:50:41;;;;;;;18.05;6.43;;;;;;;;;;5090240;28;20389;-75
2023/10/07 07:53:07;;;;;;;14.48;6.55;;;;;;;;;;5090086;28;20031;-75
2023/10/07 07:55:36;;;;;;;11.65;6.65;;;;;;;;;;5089627;28;20058;-74
2023/10/07 07:58:03;;;;;;;12.00;6.63;;;;;;;;;;5072913;28;20040;-74
2023/10/07 08:00:31;;;;;;;10.23;6.20;;;;;;;;;;5090999;28;20189;-76
2023/10/07 08:03:00;;;;;;;12.25;7.10;;;;;;;;;;5090841;28;20481;-74
2023/10/07 08:05:29;;;;;;;11.63;7.03;;;;;;;;;;5091261;28;20107;-74
2023/10/07 08:07:55;;;;;;;12.82;7.07;;;;;;;;;;5090927;28;20056;-74
2023/10/07 08:10:23;;;;;;;10.02;6.18;;;;;;;;;;5090157;28;20581;-75
2023/10/07 08:12:50;;;;;;;11.52;5.85;;;;;;;;;;5090312;28;20111;-74
2023/10/07 08:15:23;;;;;;;12.68;6.78;;;;;;;;;;5090175;28;20135;-75
2023/10/07 08:17:51;;;;;;;9.77;6.60;;;;;;;;;;5090753;28;20032;-76
2023/10/07 08:20:23;;;;;;;18.67;7.78;;;;;;;;;;5090650;28;20405;-73
2023/10/07 08:22:52;;;;;;;15.25;7.65;;;;;;;;;;5090415;28;20059;-72
2023/10/07 08:25:37;;;;;;;14.07;7.18;;;;;;;;;;5090699;28;20060;-73
2023/10/07 08:28:18;;;;;;;12.45;7.10;;;;;;;;;;5090508;28;20036;-74
2023/10/07 08:30:46;;;;;;;10.75;6.25;;;;;;;;;;5089345;28;20042;-74
2023/10/07 08:33:16;;;;;;;19.10;7.07;;;;;;;;;;5090533;28;20059;-73
2023/10/07 08:35:47;;;;;;;11.75;7.07;;;;;;;;;;5090060;28;20052;-74
2023/10/07 08:38:37;;;;;;;11.18;6.75;;;;;;;;;;5090418;28;20067;-75
2023/10/07 08:41:04;;;;;;;10.15;6.40;;;;;;;;;;5090457;28;20032;-73
2023/10/07 08:43:38;;;;;;;15.02;7.18;;;;;;;;;;5091680;28;20034;-75
2023/10/07 08:46:08;;;;;;;12.40;6.53;;;;;;;;;;5094285;28;20473;-75
2023/10/07 08:48:38;;;;;;;17.33;7.63;;;;;;;;;;5093965;28;20078;-72
2023/10/07 08:51:14;;;;;;;17.15;7.35;;;;;;;;;;5094363;28;20055;-74
2023/10/07 08:53:41;;;;;;;16.33;6.95;;;;;;;;;;5093429;28;20039;-76
2023/10/07 08:56:12;;;;;;;12.23;7.30;;;;;;;;;;5093588;28;20107;-75
2023/10/07 08:58:41;;;;;;;13.75;6.97;;;;;;;;;;5093825;28;20507;-74
2023/10/07 09:01:17;;;;;;;15.10;7.07;;;;;;;;;;5097120;28;20028;-73
2023/10/07 09:03:51;;;;;;;12.55;6.70;;;;;;;;;;5091100;28;20105;-72
2023/10/07 09:06:19;;;;;;;11.65;6.65;;;;;;;;;;5073633;28;20119;-74
2023/10/07 09:08:45;;;;;;;16.00;7.72;;;;;;;;;;5073414;28;20054;-74
2023/10/07 09:11:13;;;;;;;16.17;7.18;;;;;;;;;;5073409;28;20040;-72
2023/10/07 09:13:39;;;;;;;12.10;7.43;;;;;;;;;;5071756;28;20436;-73
2023/10/07 09:16:10;;;;;;;14.95;7.30;;;;;;;;;;5073343;28;20039;-73
2023/10/07 09:18:42;;;;;;;12.63;6.93;;;;;;;;;;5073672;28;20036;-72
2023/10/07 09:21:22;;;;;;;15.48;7.18;;;;;;;;;;5073008;28;20033;-73
2023/10/07 09:23:51;;;;;;;14.52;7.68;;;;;;;;;;5073114;28;20102;-72
2023/10/07 09:26:41;;;;;;;16.58;7.70;;;;;;;;;;5072790;28;20028;-73
2023/10/07 09:29:15;;;;;;;14.32;7.38;;;;;;;;;;5073022;28;20135;-72
2023/10/07 09:31:45;;;;;;;14.63;7.55;;;;;;;;;;5073194;28;20036;-75
2023/10/07 09:34:24;;;;;;;22.10;8.65;;;;;;;;;;5073497;28;20032;-71
2023/10/07 09:36:53;;;;;;;20.13;8.38;;;;;;;;;;5073262;28;20025;-71
2023/10/07 09:39:43;;;;;;;13.20;7.68;;;;;;;;;;5072872;28;20036;-72
2023/10/07 09:42:27;;;;;;;14.85;7.95;;;;;;;;;;5072698;28;20032;-72
2023/10/07 09:44:56;;;;;;;10.68;6.97;;;;;;;;;;5072869;28;20113;-73
2023/10/07 09:47:23;;;;;;;13.50;7.82;;;;;;;;;;5072755;28;20028;-72
2023/10/07 09:49:50;;;;;;;15.23;9.90;;;;;;;;;;5073140;28;20534;-75
2023/10/07 09:52:28;;;;;;;11.00;7.60;;;;;;;;;;5104026;28;20120;-72
2023/10/07 09:54:55;;;;;;;10.90;7.15;;;;;;;;;;5091638;28;20090;-72
2023/10/07 09:57:48;;;;;;;13.57;7.10;;;;;;;;;;5092811;28;20069;-71
2023/10/07 10:03:05;;;;;;;13.95;7.30;;;;;;;;;;5092799;28;20054;-72
2023/10/07 10:05:45;;;;;;;15.43;9.93;;;;;;;;;;5092238;28;20028;-73
2023/10/07 10:08:37;;;;;;;13.35;7.60;;;;;;;;;;5092735;28;20202;-72
2023/10/07 10:11:19;;;;;;;13.95;8.43;;;;;;;;;;5092732;28;20089;-73
2023/10/07 10:16:19;;;;;;;10.68;7.13;;;;;;;;;;5092243;28;20032;-74
2023/10/07 10:18:50;;;;;;;15.00;8.02;;;;;;;;;;5092571;28;20485;-73
2023/10/07 10:21:22;;;;;;;12.88;7.32;;;;;;;;;;5092794;28;20039;-74
2023/10/07 10:23:51;;;;;;;16.50;8.15;;;;;;;;;;5092109;28;20038;-74
2023/10/07 10:26:26;;;;;;;10.63;7.57;;;;;;;;;;5092167;28;20020;-75
2023/10/07 10:29:00;;;;;;;13.00;7.75;;;;;;;;;;5092618;28;20454;-75
2023/10/07 10:31:34;;;;;;;11.18;7.00;;;;;;;;;;5092403;28;20551;-73
2023/10/07 10:34:05;;;;;;;14.90;8.05;;;;;;;;;;5091766;28;20035;-73
2023/10/07 10:36:43;;;;;;;16.65;7.88;;;;;;;;;;5090010;28;20032;-72
2023/10/07 10:39:31;;;;;;;14.85;8.43;;;;;;;;;;5091873;28;20059;-74
2023/10/07 10:42:02;;;;;;;18.92;10.07;;;;;;;;;;5091534;28;20048;-74
2023/10/07 10:44:38;;;;;;;15.63;8.38;;;;;;;;;;5091727;28;20036;-75
2023/10/07 10:47:03;;;;;;;14.52;7.97;;;;;;;;;;5091784;28;20032;-72
2023/10/07 10:49:31;;;;;;;12.65;8.32;;;;;;;;;;5092057;28;20035;-72
2023/10/07 10:52:00;;;;;;;24.15;14.48;;;;;;;;;;5091812;28;20036;-74
2023/10/07 10:54:25;;;;;;;24.73;14.35;;;;;;;;;;5090870;28;20054;-75
2023/10/07 10:56:57;;;;;;;19.85;11.30;;;;;;;;;;5090026;28;20405;-72
2023/10/07 10:59:36;;;;;;;13.15;9.40;;;;;;;;;;5092086;28;20036;-74
2023/10/07 11:02:05;;;;;;;15.00;8.43;;;;;;;;;;5092040;28;20028;-73
2023/10/07 11:04:32;;;;;;;14.43;8.60;;;;;;;;;;5090634;28;20039;-73
2023/10/07 11:07:00;;;;;;;12.55;7.68;;;;;;;;;;5091742;28;20032;-73
2023/10/07 11:09:26;;;;;;;12.60;7.82;;;;;;;;;;5091451;28;20499;-73
2023/10/07 11:11:56;;;;;;;18.20;9.65;;;;;;;;;;5091811;28;20035;-73
2023/10/07 11:14:23;;;;;;;11.57;7.13;;;;;;;;;;5091014;28;20109;-75
2023/10/07 11:16:51;;;;;;;15.82;8.38;;;;;;;;;;5091618;28;20574;-74
2023/10/07 11:19:19;;;;;;;12.50;8.68;;;;;;;;;;5091683;28;20031;-72
2023/10/07 11:21:48;;;;;;;14.20;7.85;;;;;;;;;;5091348;28;20075;-73
2023/10/07 11:24:25;;;;;;;16.33;7.60;;;;;;;;;;5089944;28;20035;-73
2023/10/07 11:26:56;;;;;;;14.13;7.28;;;;;;;;;;5090757;28;20023;-72
2023/10/07 11:29:29;;;;;;;13.23;7.80;;;;;;;;;;5088843;28;20605;-73
2023/10/07 11:31:59;;;;;;;15.43;7.50;;;;;;;;;;5091082;28;20064;-74
2023/10/07 11:34:39;;;;;;;20.30;12.35;;;;;;;;;;5089677;28;20432;-75
2023/10/07 11:37:09;;;;;;;10.75;7.13;;;;;;;;;;5089565;28;20039;-75
2023/10/07 11:39:44;;;;;;;13.60;7.38;;;;;;;;;;5090828;28;20028;-75
2023/10/07 11:42:21;;;;;;;12.55;7.70;;;;;;;;;;5074606;28;20052;-73
2023/10/07 11:44:54;;;;;;;14.88;7.82;;;;;;;;;;5090989;28;20482;-73
2023/10/07 11:47:22;;;;;;;9.52;6.25;;;;;;;;;;5091462;28;20036;-73
2023/10/07 11:49:47;;;;;;;11.68;7.85;;;;;;;;;;5090859;28;20031;-73
2023/10/07 11:52:20;;;;;;;27.17;13.52;;;;;;;;;;5090762;28;20033;-73
2023/10/07 11:54:47;;;;;;;18.27;11.32;;;;;;;;;;5090812;28;20564;-74
2023/10/07 11:57:13;;;;;;;17.33;9.15;;;;;;;;;;5091040;28;20028;-73
2023/10/07 11:59:42;;;;;;;19.48;11.40;;;;;;;;;;5090985;28;20227;-74
2023/10/07 12:02:12;;;;;;;16.38;8.13;;;;;;;;;;5106931;28;20136;-73
2023/10/07 12:04:38;;;;;;;14.60;8.30;;;;;;;;;;5091342;28;20059;-71
2023/10/07 12:07:07;;;;;;;13.85;7.95;;;;;;;;;;5090985;28;20027;-72
2023/10/07 12:09:34;;;;;;;11.00;7.03;;;;;;;;;;5090015;28;20032;-73
2023/10/07 12:11:59;;;;;;;26.40;10.60;;;;;;;;;;5091236;28;20031;-74
2023/10/07 12:14:27;;;;;;;13.50;7.60;;;;;;;;;;5091233;28;20036;-72
2023/10/07 12:16:53;;;;;;;12.15;6.78;;;;;;;;;;5090820;28;20172;-73
2023/10/07 12:19:18;;;;;;;14.57;6.40;;;;;;;;;;5093461;28;20386;-72
2023/10/07 12:21:47;;;;;;;9.55;6.40;;;;;;;;;;5095079;28;20031;-72
2023/10/07 12:24:16;;;;;;;9.60;6.32;;;;;;;;;;5095083;28;20040;-73
2023/10/07 12:26:46;;;;;;;11.43;6.85;;;;;;;;;;5094220;28;20524;-70
2023/10/07 12:29:13;;;;;;;11.95;6.95;;;;;;;;;;5094230;28;20032;-71
2023/10/07 12:31:40;;;;;;;12.82;7.10;;;;;;;;;;5094882;28;20028;-72
2023/10/07 12:34:09;;;;;;;10.80;6.88;;;;;;;;;;5094243;28;20032;-72
2023/10/07 12:36:35;;;;;;;10.70;6.40;;;;;;;;;;5093638;28;20039;-73
2023/10/07 12:39:01;;;;;;;13.45;6.88;;;;;;;;;;5093024;28;20019;-72
2023/10/07 12:41:27;;;;;;;9.15;6.28;;;;;;;;;;5095280;28;20474;-73
2023/10/07 12:43:53;;;;;;;10.48;6.45;;;;;;;;;;5093656;28;20020;-72
2023/10/07 12:46:20;;;;;;;13.25;6.75;;;;;;;;;;5094435;28;20081;-72
2023/10/07 12:48:46;;;;;;;9.82;6.32;;;;;;;;;;5094401;28;20127;-73
2023/10/07 12:51:13;;;;;;;11.05;6.53;;;;;;;;;;5094426;28;20478;-73
2023/10/07 12:53:40;;;;;;;15.73;6.63;;;;;;;;;;5094140;28;20145;-73
2023/10/07 12:56:18;;;;;;;11.05;6.03;;;;;;;;;;5094011;28;20096;-73
2023/10/07 12:58:46;;;;;;;10.15;6.43;;;;;;;;;;5093847;28;20082;-73
2023/10/07 13:01:15;;;;;;;10.35;7.13;;;;;;;;;;5094262;28;20236;-73
2023/10/07 13:03:44;;;;;;;11.35;6.80;;;;;;;;;;5094187;28;20055;-73
2023/10/07 13:06:11;;;;;;;15.82;6.57;;;;;;;;;;5094052;28;20431;-73
2023/10/07 13:08:38;;;;;;;10.15;5.88;;;;;;;;;;5094205;28;20126;-71
2023/10/07 13:11:11;;;;;;;14.63;6.32;;;;;;;;;;5093916;28;20039;-72
2023/10/07 13:13:40;;;;;;;10.05;6.30;;;;;;;;;;5093853;28;20052;-73
2023/10/07 13:16:08;;;;;;;10.93;5.65;;;;;;;;;;5093754;28;20474;-72
2023/10/07 13:18:35;;;;;;;10.95;6.30;;;;;;;;;;5094096;28;20044;-73
2023/10/07 13:21:07;;;;;;;9.88;5.75;;;;;;;;;;5094356;28;20028;-73
2023/10/07 13:23:38;;;;;;;10.85;6.07;;;;;;;;;;5094099;28;20028;-73
2023/10/07 13:26:10;;;;;;;10.40;5.85;;;;;;;;;;5093987;28;20043;-72
2023/10/07 13:28:39;;;;;;;11.70;6.70;;;;;;;;;;5093284;28;20028;-73
2023/10/07 13:31:07;;;;;;;16.50;7.15;;;;;;;;;;5092587;28;20667;-73
2023/10/07 13:33:36;;;;;;;11.57;6.55;;;;;;;;;;5092412;28;20039;-74
2023/10/07 13:36:08;;;;;;;10.77;6.68;;;;;;;;;;5093611;28;20038;-73
2023/10/07 13:38:35;;;;;;;10.52;6.20;;;;;;;;;;5091868;28;20445;-73
2023/10/07 13:41:03;;;;;;;10.35;5.60;;;;;;;;;;5093414;28;20020;-72
2023/10/07 13:43:33;;;;;;;10.15;5.53;;;;;;;;;;5093245;28;20036;-73
2023/10/07 13:46:01;;;;;;;10.40;6.15;;;;;;;;;;5093441;28;20031;-73
2023/10/07 13:48:28;;;;;;;10.05;6.63;;;;;;;;;;5093507;28;20036;-72
2023/10/07 13:51:00;;;;;;;10.82;6.80;;;;;;;;;;5093559;28;20445;-72
2023/10/07 13:56:23;;;;;;;10.73;6.65;;;;;;;;;;5072836;28;20052;-73
2023/10/07 13:58:51;;;;;;;9.27;6.20;;;;;;;;;;5093006;28;20095;-71
2023/10/07 14:01:17;;;;;;;11.88;5.60;;;;;;;;;;5093341;28;20024;-73
2023/10/07 14:03:44;;;;;;;9.35;5.50;;;;;;;;;;5092880;28;20047;-72
2023/10/07 14:06:12;;;;;;;11.02;5.10;;;;;;;;;;5092716;28;20488;-73
2023/10/07 14:08:43;;;;;;;10.00;6.63;;;;;;;;;;5092542;28;20031;-73
2023/10/07 14:11:09;;;;;;;11.50;6.05;;;;;;;;;;5092552;28;20039;-73
2023/10/07 14:13:36;;;;;;;11.60;5.68;;;;;;;;;;5091270;28;20035;-73
2023/10/07 14:16:09;;;;;;;12.63;6.22;;;;;;;;;;5092606;28;20476;-73
2023/10/07 14:18:39;;;;;;;;;;;;;;;;;;5091343;28;20115;-72
2023/10/07 14:21:07;;;;;;;12.32;5.85;;;;;;;;;;5092629;28;19912;-73
2023/10/07 14:23:34;;;;;;;15.75;6.82;;;;;;;;;;5092855;28;20035;-72
2023/10/07 14:26:04;;;;;;;14.90;6.10;;;;;;;;;;5092647;28;20401;-72
2023/10/07 14:28:30;;;;;;;16.73;7.07;;;;;;;;;;5092192;28;20016;-73
2023/10/07 14:30:57;;;;;;;11.70;6.30;;;;;;;;;;5092284;28;20055;-73
2023/10/07 14:33:23;;;;;;;11.23;6.18;;;;;;;;;;5092049;28;20098;-73
2023/10/07 14:35:54;;;;;;;12.20;6.93;;;;;;;;;;5091552;28;20152;-72
2023/10/07 14:38:20;;;;;;;9.13;5.78;;;;;;;;;;5092234;28;20035;-72
2023/10/07 14:40:50;;;;;;;9.32;5.93;;;;;;;;;;5091595;28;20024;-72
2023/10/07 14:43:17;;;;;;;10.77;6.32;;;;;;;;;;5091710;28;20035;-72
2023/10/07 14:45:53;;;;;;;9.82;5.63;;;;;;;;;;5091702;28;20066;-72
2023/10/07 14:48:21;;;;;;;10.52;5.85;;;;;;;;;;5089838;28;20024;-72
2023/10/07 14:50:48;;;;;;;9.50;6.22;;;;;;;;;;5091776;28;20023;-74
2023/10/07 14:53:14;;;;;;;11.43;6.40;;;;;;;;;;5091874;28;20135;-73
2023/10/07 14:55:44;;;;;;;9.55;6.20;;;;;;;;;;5091720;28;20020;-72
2023/10/07 14:58:13;;;;;;;8.57;6.20;;;;;;;;;;5091388;28;20027;-73
2023/10/07 15:00:53;;;;;;;10.85;5.60;;;;;;;;;;5091993;28;20027;-73
2023/10/07 15:03:19;;;;;;;9.45;6.28;;;;;;;;;;5091585;28;20050;-74
2023/10/07 15:05:45;;;;;;;9.70;5.93;;;;;;;;;;5091168;28;20490;-73
2023/10/07 15:08:17;;;;;;;10.30;6.22;;;;;;;;;;5091397;28;20052;-72
2023/10/07 15:10:44;;;;;;;12.23;5.93;;;;;;;;;;5091559;28;20050;-72
2023/10/07 15:13:10;;;;;;;9.80;6.35;;;;;;;;;;5091271;28;20093;-72
2023/10/07 15:15:37;;;;;;;12.80;6.32;;;;;;;;;;5091182;28;20171;-73
2023/10/07 15:18:06;;;;;;;11.43;6.38;;;;;;;;;;5091324;28;20508;-73
2023/10/07 15:20:35;;;;;;;9.80;6.68;;;;;;;;;;5091800;28;20443;-73
2023/10/07 15:23:08;;;;;;;11.75;6.65;;;;;;;;;;5088849;28;20042;-73
2023/10/07 15:25:45;;;;;;;10.90;6.10;;;;;;;;;;5089034;28;20032;-72
2023/10/07 15:28:14;;;;;;;13.40;6.78;;;;;;;;;;5087767;28;20482;-70
2023/10/07 15:30:48;;;;;;;10.52;5.82;;;;;;;;;;5088671;28;20131;-71
2023/10/07 15:33:16;;;;;;;7.75;5.95;;;;;;;;;;5091717;28;20044;-71
2023/10/07 15:35:45;;;;;;;11.35;6.93;;;;;;;;;;5088693;28;20016;-71
2023/10/07 15:38:12;;;;;;;12.15;7.30;;;;;;;;;;5090747;28;20051;-71
2023/10/07 15:40:41;;;;;;;13.25;6.90;;;;;;;;;;5090882;28;20444;-71
2023/10/07 15:43:07;;;;;;;14.70;7.40;;;;;;;;;;5090644;28;20485;-71
2023/10/07 15:45:43;;;;;;;13.90;8.10;;;;;;;;;;5090705;28;20020;-72
2023/10/07 15:48:11;;;;;;;12.68;6.80;;;;;;;;;;5090899;28;20035;-70
2023/10/07 15:50:39;;;;;;;9.98;6.82;;;;;;;;;;5091158;28;20036;-71